sensor_id;sensor_type;location;lat;lon;timestamp;pressure;altitude;pressure_sealevel;temperature;humidity
30708;BME280;17458;48.958;8.284;2023-08-06T00:01:19;99506.81;;;19.66;67.65
30708;BME280;17458;48.958;8.284;2023-08-06T00:04:05;99501.44;;;19.59;68.24
30708;BME280;17458;48.958;8.284;2023-08-06T00:06:49;99505.03;;;19.59;68.10
30708;BME280;17458;48.958;8.284;2023-08-06T00:09:33;99498.72;;;19.68;67.85
30708;BME280;17458;48.958;8.284;2023-08-06T00:12:16;99495.13;;;19.46;68.49
30708;BME280;17458;48.958;8.284;2023-08-06T00:15:00;99498.72;;;19.51;68.07
30708;BME280;17458;48.958;8.284;2023-08-06T00:17:44;99489.72;;;19.43;68.14
30708;BME280;17458;48.958;8.284;2023-08-06T00:20:28;99487.03;;;19.46;68.10
30708;BME280;17458;48.958;8.284;2023-08-06T00:23:12;99484.34;;;19.35;68.45
30708;BME280;17458;48.958;8.284;2023-08-06T00:25:56;99477.09;;;18.98;69.88
30708;BME280;17458;48.958;8.284;2023-08-06T00:28:40;99472.47;;;18.57;71.48
30708;BME280;17458;48.958;8.284;2023-08-06T00:31:24;99472.50;;;18.59;71.04
30708;BME280;17458;48.958;8.284;2023-08-06T00:34:08;99472.56;;;18.75;70.47
30708;BME280;17458;48.958;8.284;2023-08-06T00:36:53;99464.53;;;18.91;69.66
30708;BME280;17458;48.958;8.284;2023-08-06T00:39:38;99469.91;;;18.79;70.08
30708;BME280;17458;48.958;8.284;2023-08-06T00:42:23;99473.47;;;18.84;70.33
30708;BME280;17458;48.958;8.284;2023-08-06T00:45:09;99470.78;;;18.87;69.59
30708;BME280;17458;48.958;8.284;2023-08-06T00:47:53;99474.44;;;19.16;68.46
30708;BME280;17458;48.958;8.284;2023-08-06T00:50:37;99470.84;;;19.09;68.13
30708;BME280;17458;48.958;8.284;2023-08-06T00:53:21;99460.97;;;19.15;68.53
30708;BME280;17458;48.958;8.284;2023-08-06T00:56:06;99459.13;;;18.86;69.26
30708;BME280;17458;48.958;8.284;2023-08-06T00:58:51;99455.53;;;18.75;69.41
30708;BME280;17458;48.958;8.284;2023-08-06T01:01:36;99450.19;;;18.90;68.89
30708;BME280;17458;48.958;8.284;2023-08-06T01:04:20;99454.69;;;18.94;68.31
30708;BME280;17458;48.958;8.284;2023-08-06T01:16:01;99432.28;;;19.06;66.95
30708;BME280;17458;48.958;8.284;2023-08-06T01:18:47;99430.50;;;19.08;66.56
30708;BME280;17458;48.958;8.284;2023-08-06T01:21:33;99425.13;;;19.37;65.62
30708;BME280;17458;48.958;8.284;2023-08-06T01:24:17;99425.09;;;19.26;66.03
30708;BME280;17458;48.958;8.284;2023-08-06T01:27:39;99426.00;;;19.46;64.86
30708;BME280;17458;48.958;8.284;2023-08-06T01:30:29;99422.44;;;19.52;65.08
30708;BME280;17458;48.958;8.284;2023-08-06T01:33:16;99415.25;;;19.21;65.25
30708;BME280;17458;48.958;8.284;2023-08-06T01:36:03;99422.41;;;19.06;65.36
30708;BME280;17458;48.958;8.284;2023-08-06T01:38:51;99421.56;;;19.50;64.51
30708;BME280;17458;48.958;8.284;2023-08-06T01:41:36;99421.53;;;19.18;66.89
30708;BME280;17458;48.958;8.284;2023-08-06T01:44:21;99416.09;;;18.79;69.25
30708;BME280;17458;48.958;8.284;2023-08-06T01:47:05;99422.31;;;18.68;70.26
30708;BME280;17458;48.958;8.284;2023-08-06T01:49:50;99419.63;;;18.67;71.51
30708;BME280;17458;48.958;8.284;2023-08-06T01:52:36;99414.31;;;18.87;71.36
30708;BME280;17458;48.958;8.284;2023-08-06T01:55:20;99414.16;;;18.44;71.17
30708;BME280;17458;48.958;8.284;2023-08-06T01:58:04;99409.81;;;18.89;70.07
30708;BME280;17458;48.958;8.284;2023-08-06T02:00:48;99412.50;;;18.76;71.16
30708;BME280;17458;48.958;8.284;2023-08-06T02:03:32;99416.94;;;18.61;71.44
30708;BME280;17458;48.958;8.284;2023-08-06T02:06:16;99414.19;;;18.47;70.81
30708;BME280;17458;48.958;8.284;2023-08-06T02:09:00;99414.16;;;18.44;70.72
30708;BME280;17458;48.958;8.284;2023-08-06T02:11:44;99403.53;;;18.87;70.30
30708;BME280;17458;48.958;8.284;2023-08-06T02:14:28;99408.94;;;18.88;69.86
30708;BME280;17458;48.958;8.284;2023-08-06T02:17:12;99404.44;;;18.84;69.82
30708;BME280;17458;48.958;8.284;2023-08-06T02:19:56;99414.28;;;18.65;70.63
30708;BME280;17458;48.958;8.284;2023-08-06T02:22:40;99413.41;;;18.75;70.72
30708;BME280;17458;48.958;8.284;2023-08-06T02:25:26;99412.50;;;18.81;71.61
30708;BME280;17458;48.958;8.284;2023-08-06T02:28:10;99421.41;;;18.59;71.22
30708;BME280;17458;48.958;8.284;2023-08-06T02:30:56;99413.34;;;18.59;71.81
30708;BME280;17458;48.958;8.284;2023-08-06T02:33:40;99420.47;;;18.55;71.98
30708;BME280;17458;48.958;8.284;2023-08-06T02:36:24;99432.06;;;18.34;73.64
30708;BME280;17458;48.958;8.284;2023-08-06T02:39:08;99425.69;;;18.14;75.18
30708;BME280;17458;48.958;8.284;2023-08-06T02:41:53;99421.31;;;18.40;74.05
30708;BME280;17458;48.958;8.284;2023-08-06T02:44:37;99414.84;;;17.99;75.80
30708;BME280;17458;48.958;8.284;2023-08-06T02:47:22;99416.56;;;17.80;76.54
30708;BME280;17458;48.958;8.284;2023-08-06T02:50:07;99426.50;;;17.95;76.47
30708;BME280;17458;48.958;8.284;2023-08-06T02:52:51;99423.91;;;18.15;75.86
30708;BME280;17458;48.958;8.284;2023-08-06T02:55:35;99425.59;;;17.93;76.81
30708;BME280;17458;48.958;8.284;2023-08-06T02:58:24;99432.75;;;17.97;77.04
30708;BME280;17458;48.958;8.284;2023-08-06T03:01:23;99432.72;;;17.89;77.42
30708;BME280;17458;48.958;8.284;2023-08-06T03:04:14;99430.00;;;17.85;78.30
30708;BME280;17458;48.958;8.284;2023-08-06T03:07:02;99423.66;;;17.72;78.37
30708;BME280;17458;48.958;8.284;2023-08-06T03:09:55;99417.53;;;17.94;77.39
30708;BME280;17458;48.958;8.284;2023-08-06T03:12:39;99429.22;;;18.02;77.11
30708;BME280;17458;48.958;8.284;2023-08-06T03:15:23;99421.00;;;17.75;77.02
30708;BME280;17458;48.958;8.284;2023-08-06T03:18:09;99423.75;;;17.86;76.84
30708;BME280;17458;48.958;8.284;2023-08-06T03:20:53;99423.53;;;17.54;77.09
30708;BME280;17458;48.958;8.284;2023-08-06T03:23:37;99422.66;;;17.61;76.01
30708;BME280;17458;48.958;8.284;2023-08-06T03:26:22;99422.00;;;17.91;75.36
30708;BME280;17458;48.958;8.284;2023-08-06T03:29:06;99417.56;;;17.96;75.31
30708;BME280;17458;48.958;8.284;2023-08-06T03:31:52;99425.66;;;18.06;74.26
30708;BME280;17458;48.958;8.284;2023-08-06T03:34:36;99413.66;;;17.53;76.41
30708;BME280;17458;48.958;8.284;2023-08-06T03:37:20;99416.34;;;17.53;74.72
30708;BME280;17458;48.958;8.284;2023-08-06T03:40:05;99417.31;;;17.62;74.34
30708;BME280;17458;48.958;8.284;2023-08-06T03:42:51;99419.03;;;17.56;74.39
30708;BME280;17458;48.958;8.284;2023-08-06T03:45:35;99418.09;;;17.48;74.28
30708;BME280;17458;48.958;8.284;2023-08-06T03:48:19;99411.91;;;17.59;74.49
30708;BME280;17458;48.958;8.284;2023-08-06T03:51:03;99411.13;;;17.74;73.77
30708;BME280;17458;48.958;8.284;2023-08-06T03:53:47;99410.22;;;17.66;74.20
30708;BME280;17458;48.958;8.284;2023-08-06T03:56:32;99401.19;;;17.62;73.36
30708;BME280;17458;48.958;8.284;2023-08-06T03:59:17;99398.66;;;17.85;72.56
30708;BME280;17458;48.958;8.284;2023-08-06T04:02:03;99404.97;;;17.90;71.85
30708;BME280;17458;48.958;8.284;2023-08-06T04:04:47;99412.06;;;17.76;73.08
30708;BME280;17458;48.958;8.284;2023-08-06T04:07:31;99407.44;;;17.60;73.72
30708;BME280;17458;48.958;8.284;2023-08-06T04:10:15;99401.19;;;17.62;74.56
30708;BME280;17458;48.958;8.284;2023-08-06T04:12:59;99417.25;;;17.56;75.00
30708;BME280;17458;48.958;8.284;2023-08-06T04:15:42;99421.84;;;17.71;73.85
30708;BME280;17458;48.958;8.284;2023-08-06T04:18:26;99415.69;;;17.86;73.60
30708;BME280;17458;48.958;8.284;2023-08-06T04:21:10;99415.75;;;17.93;73.87
30708;BME280;17458;48.958;8.284;2023-08-06T04:23:56;99418.34;;;17.83;73.84
30708;BME280;17458;48.958;8.284;2023-08-06T04:26:40;99419.31;;;17.98;73.16
30708;BME280;17458;48.958;8.284;2023-08-06T04:29:24;99424.41;;;17.57;74.51
30708;BME280;17458;48.958;8.284;2023-08-06T04:32:09;99421.84;;;17.66;74.75
30708;BME280;17458;48.958;8.284;2023-08-06T04:34:55;99421.66;;;17.45;74.97
30708;BME280;17458;48.958;8.284;2023-08-06T04:37:40;99422.59;;;17.50;75.66
30708;BME280;17458;48.958;8.284;2023-08-06T04:40:24;99426.25;;;17.61;75.28
30708;BME280;17458;48.958;8.284;2023-08-06T04:43:08;99420.75;;;17.40;76.01
30708;BME280;17458;48.958;8.284;2023-08-06T04:45:54;99418.13;;;17.52;76.14
30708;BME280;17458;48.958;8.284;2023-08-06T04:48:38;99418.06;;;17.46;76.33
30708;BME280;17458;48.958;8.284;2023-08-06T04:51:22;99417.13;;;17.36;76.98
30708;BME280;17458;48.958;8.284;2023-08-06T04:54:06;99413.78;;;17.66;76.34
30708;BME280;17458;48.958;8.284;2023-08-06T04:56:49;99420.06;;;17.67;75.85
30708;BME280;17458;48.958;8.284;2023-08-06T04:59:33;99426.06;;;17.35;77.71
30708;BME280;17458;48.958;8.284;2023-08-06T05:02:17;99420.75;;;17.46;77.42
30708;BME280;17458;48.958;8.284;2023-08-06T05:05:01;99429.00;;;17.69;76.63
30708;BME280;17458;48.958;8.284;2023-08-06T05:07:49;99422.75;;;17.71;76.71
30708;BME280;17458;48.958;8.284;2023-08-06T05:10:33;99426.13;;;17.46;78.35
30708;BME280;17458;48.958;8.284;2023-08-06T05:13:17;99425.44;;;17.73;78.37
30708;BME280;17458;48.958;8.284;2023-08-06T05:16:01;99425.53;;;17.87;78.13
30708;BME280;17458;48.958;8.284;2023-08-06T05:18:45;99426.22;;;17.58;78.94
30708;BME280;17458;48.958;8.284;2023-08-06T05:21:29;99431.56;;;17.52;79.13
30708;BME280;17458;48.958;8.284;2023-08-06T05:24:13;99432.63;;;17.76;79.05
30708;BME280;17458;48.958;8.284;2023-08-06T05:26:57;99429.91;;;17.66;79.31
30708;BME280;17458;48.958;8.284;2023-08-06T05:29:41;99429.72;;;17.48;80.07
30708;BME280;17458;48.958;8.284;2023-08-06T05:32:25;99437.88;;;17.60;79.25
30708;BME280;17458;48.958;8.284;2023-08-06T05:35:09;99432.34;;;17.41;79.49
30708;BME280;17458;48.958;8.284;2023-08-06T05:37:53;99438.63;;;17.40;80.15
30708;BME280;17458;48.958;8.284;2023-08-06T05:40:37;99436.03;;;17.53;78.91
30708;BME280;17458;48.958;8.284;2023-08-06T05:43:22;99452.06;;;17.44;79.10
30708;BME280;17458;48.958;8.284;2023-08-06T05:46:06;99446.59;;;17.32;79.73
30708;BME280;17458;48.958;8.284;2023-08-06T05:48:50;99449.25;;;17.30;80.30
30708;BME280;17458;48.958;8.284;2023-08-06T05:51:35;99443.06;;;17.41;78.57
30708;BME280;17458;48.958;8.284;2023-08-06T05:54:19;99441.25;;;17.35;78.94
30708;BME280;17458;48.958;8.284;2023-08-06T05:57:03;99450.31;;;17.49;78.38
30708;BME280;17458;48.958;8.284;2023-08-06T05:59:47;99448.50;;;17.47;78.14
30708;BME280;17458;48.958;8.284;2023-08-06T06:02:31;99437.84;;;17.57;77.60
30708;BME280;17458;48.958;8.284;2023-08-06T06:05:15;99451.19;;;17.48;77.19
30708;BME280;17458;48.958;8.284;2023-08-06T06:07:59;99441.38;;;17.49;76.75
30708;BME280;17458;48.958;8.284;2023-08-06T06:10:43;99446.69;;;17.46;76.84
30708;BME280;17458;48.958;8.284;2023-08-06T06:13:28;99441.06;;;17.12;78.10
30708;BME280;17458;48.958;8.284;2023-08-06T06:16:11;99442.03;;;17.20;77.24
30708;BME280;17458;48.958;8.284;2023-08-06T06:18:55;99450.25;;;17.42;76.52
30708;BME280;17458;48.958;8.284;2023-08-06T06:21:41;99457.34;;;17.35;77.50
30708;BME280;17458;48.958;8.284;2023-08-06T06:24:25;99451.03;;;17.25;77.50
30708;BME280;17458;48.958;8.284;2023-08-06T06:27:09;99455.50;;;17.25;77.74
30708;BME280;17458;48.958;8.284;2023-08-06T06:29:53;99463.53;;;17.25;77.80
30708;BME280;17458;48.958;8.284;2023-08-06T06:32:38;99467.34;;;17.51;76.97
30708;BME280;17458;48.958;8.284;2023-08-06T06:35:23;99468.75;;;17.13;78.15
30708;BME280;17458;48.958;8.284;2023-08-06T06:38:07;99467.25;;;17.39;77.15
30708;BME280;17458;48.958;8.284;2023-08-06T06:40:56;99477.06;;;17.42;77.76
30708;BME280;17458;48.958;8.284;2023-08-06T06:43:40;99464.44;;;17.28;77.45
30708;BME280;17458;48.958;8.284;2023-08-06T06:46:24;99469.81;;;17.30;78.58
30708;BME280;17458;48.958;8.284;2023-08-06T06:49:08;99474.94;;;17.02;80.02
30708;BME280;17458;48.958;8.284;2023-08-06T06:51:52;99472.59;;;17.42;79.69
30708;BME280;17458;48.958;8.284;2023-08-06T06:54:36;99469.78;;;17.24;80.27
30708;BME280;17458;48.958;8.284;2023-08-06T06:57:19;99474.00;;;16.97;81.87
30708;BME280;17458;48.958;8.284;2023-08-06T07:00:04;99476.66;;;16.94;81.39
30708;BME280;17458;48.958;8.284;2023-08-06T07:02:48;99474.13;;;17.13;80.35
30708;BME280;17458;48.958;8.284;2023-08-06T07:05:32;99469.56;;;17.01;80.50
30708;BME280;17458;48.958;8.284;2023-08-06T07:08:16;99475.00;;;17.09;79.64
30708;BME280;17458;48.958;8.284;2023-08-06T07:11:02;99477.09;;;17.40;78.53
30708;BME280;17458;48.958;8.284;2023-08-06T07:13:47;99479.75;;;17.42;78.86
30708;BME280;17458;48.958;8.284;2023-08-06T07:16:30;99481.50;;;17.35;78.56
30708;BME280;17458;48.958;8.284;2023-08-06T07:19:14;99481.63;;;17.47;77.64
30708;BME280;17458;48.958;8.284;2023-08-06T07:21:58;99481.63;;;17.49;78.58
30708;BME280;17458;48.958;8.284;2023-08-06T07:24:42;99485.16;;;17.45;80.22
30708;BME280;17458;48.958;8.284;2023-08-06T07:27:26;99489.72;;;17.55;80.67
30708;BME280;17458;48.958;8.284;2023-08-06T07:30:10;99491.25;;;17.22;82.38
30708;BME280;17458;48.958;8.284;2023-08-06T07:32:55;99486.53;;;16.97;84.38
30708;BME280;17458;48.958;8.284;2023-08-06T07:35:39;99486.94;;;17.40;82.39
30708;BME280;17458;48.958;8.284;2023-08-06T07:38:23;99497.69;;;17.46;82.62
30708;BME280;17458;48.958;8.284;2023-08-06T07:41:07;99492.34;;;17.47;82.05
30708;BME280;17458;48.958;8.284;2023-08-06T07:43:52;99496.63;;;17.25;83.87
30708;BME280;17458;48.958;8.284;2023-08-06T07:46:36;99502.19;;;17.48;82.82
30708;BME280;17458;48.958;8.284;2023-08-06T07:49:21;99502.78;;;17.17;84.01
30708;BME280;17458;48.958;8.284;2023-08-06T07:52:05;99497.88;;;16.75;85.93
30708;BME280;17458;48.958;8.284;2023-08-06T07:54:50;99496.94;;;16.71;87.07
30708;BME280;17458;48.958;8.284;2023-08-06T07:57:34;99503.56;;;17.04;86.13
30708;BME280;17458;48.958;8.284;2023-08-06T08:00:18;99498.13;;;16.99;86.16
30708;BME280;17458;48.958;8.284;2023-08-06T08:03:02;99500.09;;;17.15;85.31
30708;BME280;17458;48.958;8.284;2023-08-06T08:05:47;99500.09;;;17.12;85.68
30708;BME280;17458;48.958;8.284;2023-08-06T08:08:31;99508.38;;;17.38;85.58
30708;BME280;17458;48.958;8.284;2023-08-06T08:11:15;99508.09;;;17.08;86.27
30708;BME280;17458;48.958;8.284;2023-08-06T08:14:00;99506.56;;;17.35;84.68
30708;BME280;17458;48.958;8.284;2023-08-06T08:16:44;99495.00;;;17.44;83.77
30708;BME280;17458;48.958;8.284;2023-08-06T08:19:28;99500.41;;;17.47;83.93
30708;BME280;17458;48.958;8.284;2023-08-06T08:22:12;99496.88;;;17.56;83.04
30708;BME280;17458;48.958;8.284;2023-08-06T08:24:56;99495.09;;;17.55;82.94
30708;BME280;17458;48.958;8.284;2023-08-06T08:27:40;99498.75;;;17.63;82.95
30708;BME280;17458;48.958;8.284;2023-08-06T08:30:24;99499.63;;;17.60;83.68
30708;BME280;17458;48.958;8.284;2023-08-06T08:33:08;99508.41;;;17.44;84.56
30708;BME280;17458;48.958;8.284;2023-08-06T08:35:52;99505.41;;;18.11;81.88
30708;BME280;17458;48.958;8.284;2023-08-06T08:38:36;99515.19;;;18.04;83.25
30708;BME280;17458;48.958;8.284;2023-08-06T08:41:20;99518.81;;;18.12;80.86
30708;BME280;17458;48.958;8.284;2023-08-06T08:44:08;99518.03;;;18.30;79.48
30708;BME280;17458;48.958;8.284;2023-08-06T08:46:53;99515.94;;;17.83;81.15
30708;BME280;17458;48.958;8.284;2023-08-06T08:49:38;99521.28;;;17.79;83.78
30708;BME280;17458;48.958;8.284;2023-08-06T08:52:23;99517.63;;;17.72;83.00
30708;BME280;17458;48.958;8.284;2023-08-06T08:55:10;99522.13;;;17.75;83.18
30708;BME280;17458;48.958;8.284;2023-08-06T08:57:54;99515.88;;;17.74;83.89
30708;BME280;17458;48.958;8.284;2023-08-06T09:00:40;99533.56;;;17.52;85.01
30708;BME280;17458;48.958;8.284;2023-08-06T09:03:25;99523.09;;;17.80;85.02
30708;BME280;17458;48.958;8.284;2023-08-06T09:06:11;99523.28;;;18.05;85.06
30708;BME280;17458;48.958;8.284;2023-08-06T09:09:06;99529.28;;;17.73;86.10
30708;BME280;17458;48.958;8.284;2023-08-06T09:11:52;99537.41;;;17.80;84.99
30708;BME280;17458;48.958;8.284;2023-08-06T09:14:38;99537.31;;;17.71;85.31
30708;BME280;17458;48.958;8.284;2023-08-06T09:17:22;99537.53;;;17.94;84.31
30708;BME280;17458;48.958;8.284;2023-08-06T09:20:13;99535.91;;;18.22;82.73
30708;BME280;17458;48.958;8.284;2023-08-06T09:22:57;99544.56;;;17.83;84.98
30708;BME280;17458;48.958;8.284;2023-08-06T09:25:41;99552.69;;;17.87;85.18
30708;BME280;17458;48.958;8.284;2023-08-06T09:28:36;99548.31;;;18.03;85.13
30708;BME280;17458;48.958;8.284;2023-08-06T09:31:22;99552.78;;;18.01;84.27
30708;BME280;17458;48.958;8.284;2023-08-06T09:34:16;99551.69;;;17.75;85.45
30708;BME280;17458;48.958;8.284;2023-08-06T09:37:00;99555.38;;;17.89;84.91
30708;BME280;17458;48.958;8.284;2023-08-06T09:39:45;99555.53;;;18.12;83.79
30708;BME280;17458;48.958;8.284;2023-08-06T09:42:29;99553.78;;;18.17;82.36
30708;BME280;17458;48.958;8.284;2023-08-06T09:45:12;99562.81;;;18.23;81.83
30708;BME280;17458;48.958;8.284;2023-08-06T09:48:02;99565.19;;;17.82;82.96
30708;BME280;17458;48.958;8.284;2023-08-06T09:50:47;99568.94;;;18.04;83.31
30708;BME280;17458;48.958;8.284;2023-08-06T09:53:32;99566.34;;;18.18;82.95
30708;BME280;17458;48.958;8.284;2023-08-06T09:56:18;99577.03;;;18.12;82.50
30708;BME280;17458;48.958;8.284;2023-08-06T09:59:02;99582.22;;;17.87;81.95
30708;BME280;17458;48.958;8.284;2023-08-06T10:01:46;99583.13;;;17.88;82.83
30708;BME280;17458;48.958;8.284;2023-08-06T10:04:30;99589.19;;;17.65;81.04
30708;BME280;17458;48.958;8.284;2023-08-06T10:07:14;99588.88;;;17.36;83.47
30708;BME280;17458;48.958;8.284;2023-08-06T10:09:59;99601.81;;;17.74;81.93
30708;BME280;17458;48.958;8.284;2023-08-06T10:12:48;99599.63;;;17.36;84.65
30708;BME280;17458;48.958;8.284;2023-08-06T10:15:33;99608.66;;;17.48;83.45
30708;BME280;17458;48.958;8.284;2023-08-06T10:18:19;99603.94;;;17.22;82.96
30708;BME280;17458;48.958;8.284;2023-08-06T10:21:09;99611.50;;;17.63;79.56
30708;BME280;17458;48.958;8.284;2023-08-06T10:23:54;99619.41;;;17.48;79.89
30708;BME280;17458;48.958;8.284;2023-08-06T10:26:39;99626.06;;;17.85;80.47
30708;BME280;17458;48.958;8.284;2023-08-06T10:29:35;99625.94;;;17.73;79.65
30708;BME280;17458;48.958;8.284;2023-08-06T10:32:46;99630.38;;;17.69;79.22
30708;BME280;17458;48.958;8.284;2023-08-06T10:35:34;99635.63;;;17.60;79.70
30708;BME280;17458;48.958;8.284;2023-08-06T10:38:24;99631.50;;;17.91;78.23
30708;BME280;17458;48.958;8.284;2023-08-06T10:41:36;99637.28;;;18.42;76.31
30708;BME280;17458;48.958;8.284;2023-08-06T10:44:20;99653.19;;;18.15;75.80
30708;BME280;17458;48.958;8.284;2023-08-06T10:47:27;99654.13;;;18.19;75.74
30708;BME280;17458;48.958;8.284;2023-08-06T10:50:16;99660.34;;;18.13;76.84
30708;BME280;17458;48.958;8.284;2023-08-06T10:53:06;99653.75;;;17.78;76.13
30708;BME280;17458;48.958;8.284;2023-08-06T10:55:50;99665.44;;;17.83;76.29
30708;BME280;17458;48.958;8.284;2023-08-06T10:58:34;99662.59;;;17.64;75.94
30708;BME280;17458;48.958;8.284;2023-08-06T11:01:18;99666.38;;;17.88;75.42
30708;BME280;17458;48.958;8.284;2023-08-06T11:04:02;99666.47;;;17.95;76.12
30708;BME280;17458;48.958;8.284;2023-08-06T11:06:52;99670.94;;;17.98;75.26
30708;BME280;17458;48.958;8.284;2023-08-06T11:09:37;99663.91;;;18.08;74.80
30708;BME280;17458;48.958;8.284;2023-08-06T11:12:20;99675.81;;;18.43;73.74
30708;BME280;17458;48.958;8.284;2023-08-06T11:15:05;99686.38;;;18.17;73.33
30708;BME280;17458;48.958;8.284;2023-08-06T11:17:50;99687.69;;;18.66;71.87
30708;BME280;17458;48.958;8.284;2023-08-06T11:20:34;99693.06;;;18.69;71.90
30708;BME280;17458;48.958;8.284;2023-08-06T11:23:18;99700.25;;;18.66;71.58
30708;BME280;17458;48.958;8.284;2023-08-06T11:26:02;99687.50;;;18.45;71.84
30708;BME280;17458;48.958;8.284;2023-08-06T11:28:47;99686.94;;;18.92;71.24
30708;BME280;17458;48.958;8.284;2023-08-06T11:31:31;99696.66;;;18.70;70.08
30708;BME280;17458;48.958;8.284;2023-08-06T11:34:15;99703.56;;;18.39;71.32
30708;BME280;17458;48.958;8.284;2023-08-06T11:37:02;99709.00;;;18.45;71.42
30708;BME280;17458;48.958;8.284;2023-08-06T11:39:47;99707.41;;;18.64;70.56
30708;BME280;17458;48.958;8.284;2023-08-06T11:42:35;99714.00;;;19.18;69.44
30708;BME280;17458;48.958;8.284;2023-08-06T11:45:24;99724.72;;;19.05;70.64
30708;BME280;17458;48.958;8.284;2023-08-06T11:48:08;99722.63;;;18.68;69.68
30708;BME280;17458;48.958;8.284;2023-08-06T11:50:55;99718.88;;;18.48;69.06
30708;BME280;17458;48.958;8.284;2023-08-06T11:53:40;99722.41;;;18.42;68.57
30708;BME280;17458;48.958;8.284;2023-08-06T11:56:25;99728.91;;;18.67;67.06
30708;BME280;17458;48.958;8.284;2023-08-06T11:59:10;99733.28;;;18.56;68.30
30708;BME280;17458;48.958;8.284;2023-08-06T12:01:54;99730.44;;;18.34;70.22
30708;BME280;17458;48.958;8.284;2023-08-06T12:05:02;99733.94;;;18.29;71.38
30708;BME280;17458;48.958;8.284;2023-08-06T12:07:50;99734.44;;;17.88;71.96
30708;BME280;17458;48.958;8.284;2023-08-06T12:10:33;99738.56;;;18.45;71.32
30708;BME280;17458;48.958;8.284;2023-08-06T12:13:18;99737.88;;;18.64;69.77
30708;BME280;17458;48.958;8.284;2023-08-06T12:16:02;99741.56;;;18.82;68.35
30708;BME280;17458;48.958;8.284;2023-08-06T12:18:46;99739.53;;;18.50;70.73
30708;BME280;17458;48.958;8.284;2023-08-06T12:21:32;99745.13;;;18.74;68.83
30708;BME280;17458;48.958;8.284;2023-08-06T12:24:16;99742.34;;;18.62;68.74
30708;BME280;17458;48.958;8.284;2023-08-06T12:27:00;99739.88;;;18.97;68.77
30708;BME280;17458;48.958;8.284;2023-08-06T12:29:49;99739.88;;;18.97;67.95
30708;BME280;17458;48.958;8.284;2023-08-06T12:32:33;99739.56;;;18.56;68.48
30708;BME280;17458;48.958;8.284;2023-08-06T12:35:18;99738.00;;;18.84;68.16
30708;BME280;17458;48.958;8.284;2023-08-06T12:38:02;99746.97;;;18.80;67.88
30708;BME280;17458;48.958;8.284;2023-08-06T12:40:46;99742.50;;;18.85;68.33
30708;BME280;17458;48.958;8.284;2023-08-06T12:43:29;99751.91;;;18.33;69.87
30708;BME280;17458;48.958;8.284;2023-08-06T12:46:13;99751.06;;;18.38;69.97
30708;BME280;17458;48.958;8.284;2023-08-06T12:48:57;99752.44;;;18.94;67.42
30708;BME280;17458;48.958;8.284;2023-08-06T12:51:42;99742.94;;;19.57;65.30
30708;BME280;17458;48.958;8.284;2023-08-06T12:54:26;99737.72;;;20.21;64.92
30708;BME280;17458;48.958;8.284;2023-08-06T12:57:11;99738.59;;;20.16;62.19
30708;BME280;17458;48.958;8.284;2023-08-06T12:59:55;99745.88;;;20.45;62.60
30708;BME280;17458;48.958;8.284;2023-08-06T13:02:39;99745.78;;;20.11;63.00
30708;BME280;17458;48.958;8.284;2023-08-06T13:05:23;99760.19;;;20.27;62.87
30708;BME280;17458;48.958;8.284;2023-08-06T13:08:08;99759.25;;;20.13;62.65
30708;BME280;17458;48.958;8.284;2023-08-06T13:10:51;99760.25;;;20.44;61.50
30708;BME280;17458;48.958;8.284;2023-08-06T13:13:35;99771.91;;;20.50;61.25
30708;BME280;17458;48.958;8.284;2023-08-06T13:16:19;99775.53;;;20.42;60.71
30708;BME280;17458;48.958;8.284;2023-08-06T13:19:04;99765.63;;;21.05;59.91
30708;BME280;17458;48.958;8.284;2023-08-06T13:24:36;99769.22;;;21.19;57.94
30708;BME280;17458;48.958;8.284;2023-08-06T13:27:20;99783.63;;;20.81;58.77
30708;BME280;17458;48.958;8.284;2023-08-06T13:30:04;99780.91;;;21.33;58.49
30708;BME280;17458;48.958;8.284;2023-08-06T13:32:48;99792.41;;;21.82;58.79
30708;BME280;17458;48.958;8.284;2023-08-06T13:35:32;99780.75;;;21.70;55.94
30708;BME280;17458;48.958;8.284;2023-08-06T13:38:16;99792.31;;;22.13;55.96
30708;BME280;17458;48.958;8.284;2023-08-06T13:41:01;99770.91;;;21.53;56.18
30708;BME280;17458;48.958;8.284;2023-08-06T13:43:45;99783.59;;;21.15;56.07
30708;BME280;17458;48.958;8.284;2023-08-06T13:46:29;99786.25;;;21.39;56.61
30708;BME280;17458;48.958;8.284;2023-08-06T13:49:13;99794.31;;;21.56;56.89
30708;BME280;17458;48.958;8.284;2023-08-06T13:51:57;99794.41;;;21.27;54.36
30708;BME280;17458;48.958;8.284;2023-08-06T13:54:41;99789.00;;;21.10;51.70
30708;BME280;17458;48.958;8.284;2023-08-06T13:57:24;99800.72;;;21.00;52.21
30708;BME280;17458;48.958;8.284;2023-08-06T14:00:09;99787.84;;;21.98;51.69
30708;BME280;17458;48.958;8.284;2023-08-06T14:02:59;99798.00;;;23.02;51.55
30708;BME280;17458;48.958;8.284;2023-08-06T14:05:43;99802.22;;;22.12;51.60
30708;BME280;17458;48.958;8.284;2023-08-06T14:08:27;99804.78;;;22.34;49.87
30708;BME280;17458;48.958;8.284;2023-08-06T14:11:11;99821.16;;;22.05;53.05
30708;BME280;17458;48.958;8.284;2023-08-06T14:13:55;99828.28;;;22.28;52.45
30708;BME280;17458;48.958;8.284;2023-08-06T14:16:39;99831.97;;;22.08;52.70
30708;BME280;17458;48.958;8.284;2023-08-06T14:19:23;99838.31;;;21.93;52.62
30708;BME280;17458;48.958;8.284;2023-08-06T14:22:07;99840.16;;;21.86;54.40
30708;BME280;17458;48.958;8.284;2023-08-06T14:24:51;99831.09;;;22.04;54.19
30708;BME280;17458;48.958;8.284;2023-08-06T14:27:35;99834.91;;;21.01;55.89
30708;BME280;17458;48.958;8.284;2023-08-06T14:30:19;99849.31;;;21.05;56.22
30708;BME280;17458;48.958;8.284;2023-08-06T14:33:03;99848.38;;;21.10;54.79
30708;BME280;17458;48.958;8.284;2023-08-06T14:35:47;99852.00;;;20.96;54.90
30708;BME280;17458;48.958;8.284;2023-08-06T14:38:31;99860.13;;;21.31;53.80
30708;BME280;17458;48.958;8.284;2023-08-06T14:41:15;99878.91;;;21.76;52.63
30708;BME280;17458;48.958;8.284;2023-08-06T14:43:59;99864.59;;;21.16;53.10
30708;BME280;17458;48.958;8.284;2023-08-06T14:46:43;99864.59;;;21.38;53.93